sensor_id;sensor_type;location;lat;lon;timestamp;P1;durP1;ratioP1;P2;durP2;ratioP2
10403;SDS011;5248;47.374;8.486;2023-06-22T00:00:33;11.82;;;6.55;;
10403;SDS011;5248;47.374;8.486;2023-06-22T00:02:59;11.35;;;6.28;;
10403;SDS011;5248;47.374;8.486;2023-06-22T00:05:26;14.13;;;6.68;;
10403;SDS011;5248;47.374;8.486;2023-06-22T00:07:54;7.25;;;5.80;;
10403;SDS011;5248;47.374;8.486;2023-06-22T00:10:20;9.10;;;5.97;;
10403;SDS011;5248;47.374;8.486;2023-06-22T00:12:47;8.52;;;6.13;;
10403;SDS011;5248;47.374;8.486;2023-06-22T00:15:13;9.52;;;6.78;;
10403;SDS011;5248;47.374;8.486;2023-06-22T00:17:40;16.42;;;9.18;;
10403;SDS011;5248;47.374;8.486;2023-06-22T00:20:06;11.77;;;8.27;;
10403;SDS011;5248;47.374;8.486;2023-06-22T00:22:35;12.77;;;6.40;;
10403;SDS011;5248;47.374;8.486;2023-06-22T00:25:06;9.50;;;6.40;;
10403;SDS011;5248;47.374;8.486;2023-06-22T00:27:33;9.07;;;6.30;;
10403;SDS011;5248;47.374;8.486;2023-06-22T00:29:59;8.60;;;5.68;;
10403;SDS011;5248;47.374;8.486;2023-06-22T00:32:26;10.25;;;6.28;;
10403;SDS011;5248;47.374;8.486;2023-06-22T00:34:52;10.38;;;6.00;;
10403;SDS011;5248;47.374;8.486;2023-06-22T00:37:19;11.95;;;5.63;;
10403;SDS011;5248;47.374;8.486;2023-06-22T00:39:49;12.77;;;6.40;;
10403;SDS011;5248;47.374;8.486;2023-06-22T00:42:16;7.72;;;5.70;;
10403;SDS011;5248;47.374;8.486;2023-06-22T00:44:43;9.85;;;6.05;;
10403;SDS011;5248;47.374;8.486;2023-06-22T00:47:09;9.18;;;6.30;;
10403;SDS011;5248;47.374;8.486;2023-06-22T00:49:37;8.52;;;6.20;;
10403;SDS011;5248;47.374;8.486;2023-06-22T00:52:04;10.00;;;5.80;;
10403;SDS011;5248;47.374;8.486;2023-06-22T00:54:35;9.27;;;6.20;;
10403;SDS011;5248;47.374;8.486;2023-06-22T00:57:03;11.10;;;6.07;;
10403;SDS011;5248;47.374;8.486;2023-06-22T00:59:32;10.85;;;6.25;;
10403;SDS011;5248;47.374;8.486;2023-06-22T01:01:59;8.38;;;6.40;;
10403;SDS011;5248;47.374;8.486;2023-06-22T01:04:34;7.35;;;5.80;;
10403;SDS011;5248;47.374;8.486;2023-06-22T01:07:02;7.90;;;6.00;;
10403;SDS011;5248;47.374;8.486;2023-06-22T01:09:36;10.95;;;6.07;;
10403;SDS011;5248;47.374;8.486;2023-06-22T01:12:09;11.68;;;6.18;;
10403;SDS011;5248;47.374;8.486;2023-06-22T01:14:37;9.23;;;6.28;;
10403;SDS011;5248;47.374;8.486;2023-06-22T01:17:07;9.52;;;5.80;;
10403;SDS011;5248;47.374;8.486;2023-06-22T01:19:35;9.73;;;5.72;;
10403;SDS011;5248;47.374;8.486;2023-06-22T01:22:07;7.78;;;5.88;;
10403;SDS011;5248;47.374;8.486;2023-06-22T01:24:42;9.95;;;6.07;;
10403;SDS011;5248;47.374;8.486;2023-06-22T01:27:17;9.20;;;6.10;;
10403;SDS011;5248;47.374;8.486;2023-06-22T01:29:59;9.27;;;5.88;;
10403;SDS011;5248;47.374;8.486;2023-06-22T01:32:28;7.32;;;5.90;;
10403;SDS011;5248;47.374;8.486;2023-06-22T01:34:57;8.30;;;5.60;;
10403;SDS011;5248;47.374;8.486;2023-06-22T01:37:25;8.63;;;6.10;;
10403;SDS011;5248;47.374;8.486;2023-06-22T01:39:52;9.52;;;5.88;;
10403;SDS011;5248;47.374;8.486;2023-06-22T01:42:21;9.57;;;6.05;;
10403;SDS011;5248;47.374;8.486;2023-06-22T01:44:49;9.35;;;6.75;;
10403;SDS011;5248;47.374;8.486;2023-06-22T01:47:18;8.85;;;6.20;;
10403;SDS011;5248;47.374;8.486;2023-06-22T01:49:47;12.45;;;6.57;;
10403;SDS011;5248;47.374;8.486;2023-06-22T01:52:16;12.85;;;6.50;;
10403;SDS011;5248;47.374;8.486;2023-06-22T01:54:43;8.73;;;6.20;;
10403;SDS011;5248;47.374;8.486;2023-06-22T01:57:09;11.88;;;6.70;;
10403;SDS011;5248;47.374;8.486;2023-06-22T01:59:37;8.82;;;6.50;;
10403;SDS011;5248;47.374;8.486;2023-06-22T02:02:08;13.63;;;7.03;;
10403;SDS011;5248;47.374;8.486;2023-06-22T02:04:38;8.10;;;6.32;;
10403;SDS011;5248;47.374;8.486;2023-06-22T02:07:09;11.15;;;5.95;;
10403;SDS011;5248;47.374;8.486;2023-06-22T02:09:38;14.70;;;6.65;;
10403;SDS011;5248;47.374;8.486;2023-06-22T02:12:10;9.30;;;6.25;;
10403;SDS011;5248;47.374;8.486;2023-06-22T02:14:38;12.77;;;6.53;;
10403;SDS011;5248;47.374;8.486;2023-06-22T02:17:05;9.27;;;6.53;;
10403;SDS011;5248;47.374;8.486;2023-06-22T02:19:35;9.20;;;5.95;;
10403;SDS011;5248;47.374;8.486;2023-06-22T02:22:04;11.73;;;7.00;;
10403;SDS011;5248;47.374;8.486;2023-06-22T02:24:31;9.05;;;6.10;;
10403;SDS011;5248;47.374;8.486;2023-06-22T02:26:58;8.60;;;5.85;;
10403;SDS011;5248;47.374;8.486;2023-06-22T02:29:25;9.07;;;6.72;;
10403;SDS011;5248;47.374;8.486;2023-06-22T02:31:52;13.27;;;6.57;;
10403;SDS011;5248;47.374;8.486;2023-06-22T02:34:18;7.72;;;6.30;;
10403;SDS011;5248;47.374;8.486;2023-06-22T02:36:48;9.52;;;6.20;;
10403;SDS011;5248;47.374;8.486;2023-06-22T02:39:18;8.02;;;6.15;;
10403;SDS011;5248;47.374;8.486;2023-06-22T02:41:45;10.40;;;6.50;;
10403;SDS011;5248;47.374;8.486;2023-06-22T02:44:12;10.48;;;6.18;;
10403;SDS011;5248;47.374;8.486;2023-06-22T02:46:38;9.02;;;5.78;;
10403;SDS011;5248;47.374;8.486;2023-06-22T02:49:05;8.75;;;6.18;;
10403;SDS011;5248;47.374;8.486;2023-06-22T02:51:32;9.45;;;6.72;;
10403;SDS011;5248;47.374;8.486;2023-06-22T02:54:01;13.88;;;6.40;;
10403;SDS011;5248;47.374;8.486;2023-06-22T02:56:28;10.27;;;6.30;;
10403;SDS011;5248;47.374;8.486;2023-06-22T02:58:55;10.45;;;6.25;;
10403;SDS011;5248;47.374;8.486;2023-06-22T03:01:26;9.75;;;5.88;;
10403;SDS011;5248;47.374;8.486;2023-06-22T03:03:53;7.68;;;5.63;;
10403;SDS011;5248;47.374;8.486;2023-06-22T03:06:22;10.00;;;6.30;;
10403;SDS011;5248;47.374;8.486;2023-06-22T03:08:54;11.43;;;6.30;;
10403;SDS011;5248;47.374;8.486;2023-06-22T03:11:28;9.45;;;6.18;;
10403;SDS011;5248;47.374;8.486;2023-06-22T03:13:58;7.90;;;6.15;;
10403;SDS011;5248;47.374;8.486;2023-06-22T03:16:25;13.18;;;5.82;;
10403;SDS011;5248;47.374;8.486;2023-06-22T03:18:52;10.45;;;6.05;;
10403;SDS011;5248;47.374;8.486;2023-06-22T03:21:21;9.90;;;6.43;;
10403;SDS011;5248;47.374;8.486;2023-06-22T03:23:49;13.18;;;6.70;;
10403;SDS011;5248;47.374;8.486;2023-06-22T03:26:18;8.80;;;6.30;;
10403;SDS011;5248;47.374;8.486;2023-06-22T03:28:46;9.15;;;6.40;;
10403;SDS011;5248;47.374;8.486;2023-06-22T03:31:13;13.63;;;6.88;;
10403;SDS011;5248;47.374;8.486;2023-06-22T03:33:40;13.05;;;7.00;;
10403;SDS011;5248;47.374;8.486;2023-06-22T03:36:06;9.93;;;6.32;;
10403;SDS011;5248;47.374;8.486;2023-06-22T03:38:33;10.90;;;6.22;;
10403;SDS011;5248;47.374;8.486;2023-06-22T03:40:59;12.27;;;7.07;;
10403;SDS011;5248;47.374;8.486;2023-06-22T03:43:26;11.43;;;6.68;;
10403;SDS011;5248;47.374;8.486;2023-06-22T03:45:55;11.25;;;6.78;;
10403;SDS011;5248;47.374;8.486;2023-06-22T03:48:24;10.52;;;6.88;;
10403;SDS011;5248;47.374;8.486;2023-06-22T03:50:50;15.75;;;10.38;;
10403;SDS011;5248;47.374;8.486;2023-06-22T03:53:18;9.73;;;7.47;;
10403;SDS011;5248;47.374;8.486;2023-06-22T03:55:49;14.65;;;7.13;;
10403;SDS011;5248;47.374;8.486;2023-06-22T03:58:18;12.20;;;7.30;;
10403;SDS011;5248;47.374;8.486;2023-06-22T04:00:45;15.23;;;7.20;;
10403;SDS011;5248;47.374;8.486;2023-06-22T04:03:13;14.50;;;6.80;;
10403;SDS011;5248;47.374;8.486;2023-06-22T04:05:40;9.15;;;6.68;;
10403;SDS011;5248;47.374;8.486;2023-06-22T04:08:09;8.57;;;6.80;;
10403;SDS011;5248;47.374;8.486;2023-06-22T04:10:36;10.52;;;6.43;;
10403;SDS011;5248;47.374;8.486;2023-06-22T04:13:03;9.23;;;7.22;;
10403;SDS011;5248;47.374;8.486;2023-06-22T04:15:31;10.85;;;6.63;;
10403;SDS011;5248;47.374;8.486;2023-06-22T04:17:58;8.63;;;6.80;;
10403;SDS011;5248;47.374;8.486;2023-06-22T04:20:28;11.10;;;6.88;;
10403;SDS011;5248;47.374;8.486;2023-06-22T04:22:56;11.57;;;7.22;;
10403;SDS011;5248;47.374;8.486;2023-06-22T04:25:24;8.02;;;6.63;;
10403;SDS011;5248;47.374;8.486;2023-06-22T04:27:51;7.88;;;6.72;;
10403;SDS011;5248;47.374;8.486;2023-06-22T04:30:17;7.60;;;6.82;;
10403;SDS011;5248;47.374;8.486;2023-06-22T04:32:44;11.10;;;6.95;;
10403;SDS011;5248;47.374;8.486;2023-06-22T04:35:10;8.65;;;6.80;;
10403;SDS011;5248;47.374;8.486;2023-06-22T04:37:38;10.50;;;6.97;;
10403;SDS011;5248;47.374;8.486;2023-06-22T04:40:08;9.90;;;6.85;;
10403;SDS011;5248;47.374;8.486;2023-06-22T04:42:38;11.43;;;7.28;;
10403;SDS011;5248;47.374;8.486;2023-06-22T04:45:05;10.75;;;6.80;;
10403;SDS011;5248;47.374;8.486;2023-06-22T04:47:32;8.75;;;6.53;;
10403;SDS011;5248;47.374;8.486;2023-06-22T04:49:58;11.25;;;6.82;;
10403;SDS011;5248;47.374;8.486;2023-06-22T04:52:28;12.00;;;6.80;;
10403;SDS011;5248;47.374;8.486;2023-06-22T04:54:55;7.55;;;6.22;;
10403;SDS011;5248;47.374;8.486;2023-06-22T04:57:24;10.85;;;6.65;;
10403;SDS011;5248;47.374;8.486;2023-06-22T04:59:57;12.93;;;7.00;;
10403;SDS011;5248;47.374;8.486;2023-06-22T05:02:39;7.07;;;6.18;;
10403;SDS011;5248;47.374;8.486;2023-06-22T05:05:06;10.48;;;7.60;;
10403;SDS011;5248;47.374;8.486;2023-06-22T05:07:33;7.25;;;6.50;;
10403;SDS011;5248;47.374;8.486;2023-06-22T05:10:01;11.98;;;7.22;;
10403;SDS011;5248;47.374;8.486;2023-06-22T05:12:28;6.78;;;6.18;;
10403;SDS011;5248;47.374;8.486;2023-06-22T05:14:55;9.05;;;6.57;;
10403;SDS011;5248;47.374;8.486;2023-06-22T05:17:22;8.32;;;7.00;;
10403;SDS011;5248;47.374;8.486;2023-06-22T05:19:48;10.65;;;7.43;;
10403;SDS011;5248;47.374;8.486;2023-06-22T05:22:15;12.93;;;8.18;;
10403;SDS011;5248;47.374;8.486;2023-06-22T05:24:42;11.60;;;8.18;;
10403;SDS011;5248;47.374;8.486;2023-06-22T05:27:10;8.05;;;7.25;;
10403;SDS011;5248;47.374;8.486;2023-06-22T05:29:37;13.10;;;7.90;;
10403;SDS011;5248;47.374;8.486;2023-06-22T05:32:04;11.10;;;7.78;;
10403;SDS011;5248;47.374;8.486;2023-06-22T05:34:35;9.77;;;6.70;;
10403;SDS011;5248;47.374;8.486;2023-06-22T05:37:02;11.35;;;6.70;;
10403;SDS011;5248;47.374;8.486;2023-06-22T05:39:29;8.70;;;7.07;;
10403;SDS011;5248;47.374;8.486;2023-06-22T05:41:55;8.18;;;6.72;;
10403;SDS011;5248;47.374;8.486;2023-06-22T05:44:23;9.75;;;7.25;;
10403;SDS011;5248;47.374;8.486;2023-06-22T05:46:50;12.85;;;7.63;;
10403;SDS011;5248;47.374;8.486;2023-06-22T05:49:16;14.15;;;7.97;;
10403;SDS011;5248;47.374;8.486;2023-06-22T05:51:43;10.85;;;6.72;;
10403;SDS011;5248;47.374;8.486;2023-06-22T05:54:09;12.10;;;7.63;;
10403;SDS011;5248;47.374;8.486;2023-06-22T05:56:38;9.73;;;7.20;;
10403;SDS011;5248;47.374;8.486;2023-06-22T05:59:06;12.98;;;7.40;;
10403;SDS011;5248;47.374;8.486;2023-06-22T06:01:34;11.52;;;7.45;;
10403;SDS011;5248;47.374;8.486;2023-06-22T06:04:01;11.50;;;8.40;;
10403;SDS011;5248;47.374;8.486;2023-06-22T06:06:28;11.18;;;7.30;;
10403;SDS011;5248;47.374;8.486;2023-06-22T06:08:55;10.88;;;7.18;;
10403;SDS011;5248;47.374;8.486;2023-06-22T06:11:22;11.43;;;7.32;;
10403;SDS011;5248;47.374;8.486;2023-06-22T06:13:49;9.50;;;6.97;;
10403;SDS011;5248;47.374;8.486;2023-06-22T06:16:16;10.10;;;6.93;;
10403;SDS011;5248;47.374;8.486;2023-06-22T06:18:44;10.32;;;7.63;;
10403;SDS011;5248;47.374;8.486;2023-06-22T06:21:10;12.75;;;7.93;;
10403;SDS011;5248;47.374;8.486;2023-06-22T06:23:36;11.27;;;7.97;;
10403;SDS011;5248;47.374;8.486;2023-06-22T06:26:03;11.98;;;7.18;;
10403;SDS011;5248;47.374;8.486;2023-06-22T06:28:31;12.68;;;8.30;;
10403;SDS011;5248;47.374;8.486;2023-06-22T06:30:58;9.10;;;6.85;;
10403;SDS011;5248;47.374;8.486;2023-06-22T06:33:24;9.27;;;7.05;;
10403;SDS011;5248;47.374;8.486;2023-06-22T06:35:52;8.85;;;6.60;;
10403;SDS011;5248;47.374;8.486;2023-06-22T06:38:20;8.00;;;6.78;;
10403;SDS011;5248;47.374;8.486;2023-06-22T06:40:47;10.05;;;7.57;;
10403;SDS011;5248;47.374;8.486;2023-06-22T06:43:14;10.27;;;7.13;;
10403;SDS011;5248;47.374;8.486;2023-06-22T06:45:40;11.70;;;7.90;;
10403;SDS011;5248;47.374;8.486;2023-06-22T06:48:07;10.40;;;7.93;;
10403;SDS011;5248;47.374;8.486;2023-06-22T06:50:34;13.80;;;6.30;;
10403;SDS011;5248;47.374;8.486;2023-06-22T06:53:02;9.57;;;7.47;;
10403;SDS011;5248;47.374;8.486;2023-06-22T06:55:28;11.82;;;7.68;;
10403;SDS011;5248;47.374;8.486;2023-06-22T06:57:57;10.85;;;8.00;;
10403;SDS011;5248;47.374;8.486;2023-06-22T07:00:24;14.45;;;8.48;;
10403;SDS011;5248;47.374;8.486;2023-06-22T07:02:51;18.52;;;8.48;;
10403;SDS011;5248;47.374;8.486;2023-06-22T07:05:19;13.25;;;8.05;;
10403;SDS011;5248;47.374;8.486;2023-06-22T07:07:45;11.40;;;8.00;;
10403;SDS011;5248;47.374;8.486;2023-06-22T07:10:13;9.70;;;7.20;;
10403;SDS011;5248;47.374;8.486;2023-06-22T07:12:41;13.25;;;8.38;;
10403;SDS011;5248;47.374;8.486;2023-06-22T07:15:08;14.15;;;7.78;;
10403;SDS011;5248;47.374;8.486;2023-06-22T07:17:36;9.95;;;8.05;;
10403;SDS011;5248;47.374;8.486;2023-06-22T07:20:04;12.35;;;8.00;;
10403;SDS011;5248;47.374;8.486;2023-06-22T07:22:35;12.10;;;7.88;;
10403;SDS011;5248;47.374;8.486;2023-06-22T07:25:02;13.32;;;8.20;;
10403;SDS011;5248;47.374;8.486;2023-06-22T07:27:38;13.40;;;8.57;;
10403;SDS011;5248;47.374;8.486;2023-06-22T07:30:08;9.15;;;6.93;;
10403;SDS011;5248;47.374;8.486;2023-06-22T07:32:35;13.90;;;8.55;;
10403;SDS011;5248;47.374;8.486;2023-06-22T07:35:04;11.75;;;9.05;;
10403;SDS011;5248;47.374;8.486;2023-06-22T07:37:32;14.00;;;8.20;;
10403;SDS011;5248;47.374;8.486;2023-06-22T07:40:01;13.57;;;8.50;;
10403;SDS011;5248;47.374;8.486;2023-06-22T07:42:35;13.45;;;8.90;;
10403;SDS011;5248;47.374;8.486;2023-06-22T07:45:03;11.93;;;8.15;;
10403;SDS011;5248;47.374;8.486;2023-06-22T07:47:33;12.18;;;8.80;;
10403;SDS011;5248;47.374;8.486;2023-06-22T07:50:02;10.38;;;7.30;;
10403;SDS011;5248;47.374;8.486;2023-06-22T07:52:30;10.10;;;7.18;;
10403;SDS011;5248;47.374;8.486;2023-06-22T07:54:58;10.80;;;7.93;;
10403;SDS011;5248;47.374;8.486;2023-06-22T07:57:27;13.32;;;8.15;;
10403;SDS011;5248;47.374;8.486;2023-06-22T07:59:59;9.48;;;8.07;;
10403;SDS011;5248;47.374;8.486;2023-06-22T08:02:29;12.77;;;6.78;;
10403;SDS011;5248;47.374;8.486;2023-06-22T08:04:55;14.40;;;7.20;;
10403;SDS011;5248;47.374;8.486;2023-06-22T08:07:22;7.60;;;6.70;;
10403;SDS011;5248;47.374;8.486;2023-06-22T08:09:51;10.13;;;6.88;;
10403;SDS011;5248;47.374;8.486;2023-06-22T08:12:17;9.20;;;6.88;;
10403;SDS011;5248;47.374;8.486;2023-06-22T08:14:43;11.70;;;7.72;;
10403;SDS011;5248;47.374;8.486;2023-06-22T08:17:12;9.38;;;7.25;;
10403;SDS011;5248;47.374;8.486;2023-06-22T08:19:39;10.80;;;7.47;;
10403;SDS011;5248;47.374;8.486;2023-06-22T08:22:06;11.07;;;7.07;;
10403;SDS011;5248;47.374;8.486;2023-06-22T08:24:32;11.65;;;7.53;;
10403;SDS011;5248;47.374;8.486;2023-06-22T08:26:59;12.45;;;7.63;;
10403;SDS011;5248;47.374;8.486;2023-06-22T08:29:25;7.00;;;6.30;;
10403;SDS011;5248;47.374;8.486;2023-06-22T08:31:52;14.07;;;7.35;;
10403;SDS011;5248;47.374;8.486;2023-06-22T08:34:20;10.98;;;6.90;;
10403;SDS011;5248;47.374;8.486;2023-06-22T08:36:49;11.85;;;7.03;;
10403;SDS011;5248;47.374;8.486;2023-06-22T08:39:16;12.10;;;6.75;;
10403;SDS011;5248;47.374;8.486;2023-06-22T08:41:43;12.60;;;7.30;;
10403;SDS011;5248;47.374;8.486;2023-06-22T08:44:10;11.27;;;7.93;;
10403;SDS011;5248;47.374;8.486;2023-06-22T08:46:37;10.48;;;6.93;;
10403;SDS011;5248;47.374;8.486;2023-06-22T08:49:05;17.73;;;8.07;;
10403;SDS011;5248;47.374;8.486;2023-06-22T08:51:33;11.70;;;6.82;;
10403;SDS011;5248;47.374;8.486;2023-06-22T08:54:00;9.82;;;5.95;;
10403;SDS011;5248;47.374;8.486;2023-06-22T08:56:31;13.70;;;6.90;;
10403;SDS011;5248;47.374;8.486;2023-06-22T08:58:58;13.13;;;7.20;;
10403;SDS011;5248;47.374;8.486;2023-06-22T09:01:25;11.18;;;6.72;;
10403;SDS011;5248;47.374;8.486;2023-06-22T09:03:59;9.75;;;6.90;;
10403;SDS011;5248;47.374;8.486;2023-06-22T09:06:25;9.05;;;6.28;;
10403;SDS011;5248;47.374;8.486;2023-06-22T09:08:53;13.50;;;6.72;;
10403;SDS011;5248;47.374;8.486;2023-06-22T09:11:19;12.02;;;6.35;;
10403;SDS011;5248;47.374;8.486;2023-06-22T09:13:46;14.07;;;7.63;;
10403;SDS011;5248;47.374;8.486;2023-06-22T09:16:13;8.65;;;6.60;;
10403;SDS011;5248;47.374;8.486;2023-06-22T09:18:39;7.97;;;6.45;;
10403;SDS011;5248;47.374;8.486;2023-06-22T09:21:06;9.60;;;6.68;;
10403;SDS011;5248;47.374;8.486;2023-06-22T09:23:33;13.90;;;8.27;;
10403;SDS011;5248;47.374;8.486;2023-06-22T09:26:01;11.77;;;7.45;;
10403;SDS011;5248;47.374;8.486;2023-06-22T09:28:29;13.77;;;6.68;;
10403;SDS011;5248;47.374;8.486;2023-06-22T09:30:56;11.27;;;7.75;;
10403;SDS011;5248;47.374;8.486;2023-06-22T09:33:23;9.35;;;6.75;;
10403;SDS011;5248;47.374;8.486;2023-06-22T09:35:53;10.32;;;7.25;;
10403;SDS011;5248;47.374;8.486;2023-06-22T09:38:19;9.10;;;6.93;;
10403;SDS011;5248;47.374;8.486;2023-06-22T09:40:48;9.90;;;7.32;;
10403;SDS011;5248;47.374;8.486;2023-06-22T09:43:16;9.27;;;6.22;;
10403;SDS011;5248;47.374;8.486;2023-06-22T09:45:43;10.77;;;6.93;;
10403;SDS011;5248;47.374;8.486;2023-06-22T09:48:10;10.38;;;6.95;;
10403;SDS011;5248;47.374;8.486;2023-06-22T09:50:37;9.18;;;6.50;;
10403;SDS011;5248;47.374;8.486;2023-06-22T09:53:05;12.13;;;6.63;;
10403;SDS011;5248;47.374;8.486;2023-06-22T09:55:34;9.70;;;7.60;;
10403;SDS011;5248;47.374;8.486;2023-06-22T09:58:01;6.45;;;5.78;;
10403;SDS011;5248;47.374;8.486;2023-06-22T10:00:29;14.55;;;7.20;;
10403;SDS011;5248;47.374;8.486;2023-06-22T10:02:55;10.45;;;6.47;;
10403;SDS011;5248;47.374;8.486;2023-06-22T10:05:22;10.35;;;6.35;;
10403;SDS011;5248;47.374;8.486;2023-06-22T10:07:49;12.50;;;6.78;;
10403;SDS011;5248;47.374;8.486;2023-06-22T10:10:16;8.95;;;5.75;;
10403;SDS011;5248;47.374;8.486;2023-06-22T10:12:45;10.45;;;6.20;;
10403;SDS011;5248;47.374;8.486;2023-06-22T10:15:11;8.88;;;6.03;;
10403;SDS011;5248;47.374;8.486;2023-06-22T10:17:40;10.27;;;6.82;;
10403;SDS011;5248;47.374;8.486;2023-06-22T10:20:07;6.38;;;5.78;;
10403;SDS011;5248;47.374;8.486;2023-06-22T10:22:38;8.20;;;5.82;;
10403;SDS011;5248;47.374;8.486;2023-06-22T10:25:05;7.70;;;5.80;;
10403;SDS011;5248;47.374;8.486;2023-06-22T10:27:32;13.73;;;7.15;;
10403;SDS011;5248;47.374;8.486;2023-06-22T10:29:59;10.63;;;7.50;;
10403;SDS011;5248;47.374;8.486;2023-06-22T10:32:26;11.85;;;6.75;;
10403;SDS011;5248;47.374;8.486;2023-06-22T10:34:54;8.63;;;6.70;;
10403;SDS011;5248;47.374;8.486;2023-06-22T10:37:21;9.27;;;6.35;;
10403;SDS011;5248;47.374;8.486;2023-06-22T10:39:49;6.75;;;6.03;;
10403;SDS011;5248;47.374;8.486;2023-06-22T10:42:16;9.63;;;6.13;;
10403;SDS011;5248;47.374;8.486;2023-06-22T10:44:43;8.75;;;6.18;;
10403;SDS011;5248;47.374;8.486;2023-06-22T10:47:09;7.20;;;5.95;;
10403;SDS011;5248;47.374;8.486;2023-06-22T10:49:37;8.27;;;6.88;;
10403;SDS011;5248;47.374;8.486;2023-06-22T10:52:06;6.68;;;6.00;;
10403;SDS011;5248;47.374;8.486;2023-06-22T10:54:33;8.93;;;6.35;;
10403;SDS011;5248;47.374;8.486;2023-06-22T10:57:00;8.57;;;6.80;;
10403;SDS011;5248;47.374;8.486;2023-06-22T10:59:27;10.27;;;7.70;;
10403;SDS011;5248;47.374;8.486;2023-06-22T11:01:54;10.02;;;6.60;;
10403;SDS011;5248;47.374;8.486;2023-06-22T11:04:21;9.73;;;7.03;;
10403;SDS011;5248;47.374;8.486;2023-06-22T11:06:47;8.32;;;5.88;;
10403;SDS011;5248;47.374;8.486;2023-06-22T11:09:17;10.55;;;6.75;;
10403;SDS011;5248;47.374;8.486;2023-06-22T11:11:46;6.68;;;5.88;;
10403;SDS011;5248;47.374;8.486;2023-06-22T11:14:12;10.23;;;5.95;;
10403;SDS011;5248;47.374;8.486;2023-06-22T11:16:39;9.85;;;6.15;;
10403;SDS011;5248;47.374;8.486;2023-06-22T11:19:05;11.85;;;6.70;;
10403;SDS011;5248;47.374;8.486;2023-06-22T11:21:32;9.55;;;6.25;;
10403;SDS011;5248;47.374;8.486;2023-06-22T11:23:58;8.82;;;5.95;;
10403;SDS011;5248;47.374;8.486;2023-06-22T11:26:26;9.23;;;5.95;;
10403;SDS011;5248;47.374;8.486;2023-06-22T11:28:53;8.60;;;6.13;;
10403;SDS011;5248;47.374;8.486;2023-06-22T11:31:19;7.43;;;5.53;;
10403;SDS011;5248;47.374;8.486;2023-06-22T11:33:46;10.70;;;6.80;;
10403;SDS011;5248;47.374;8.486;2023-06-22T11:36:13;10.00;;;5.97;;
10403;SDS011;5248;47.374;8.486;2023-06-22T11:38:40;9.50;;;6.57;;
10403;SDS011;5248;47.374;8.486;2023-06-22T11:41:07;9.07;;;5.95;;
10403;SDS011;5248;47.374;8.486;2023-06-22T11:43:35;11.25;;;5.90;;
10403;SDS011;5248;47.374;8.486;2023-06-22T11:46:02;10.23;;;6.05;;
10403;SDS011;5248;47.374;8.486;2023-06-22T11:48:29;9.43;;;6.00;;
10403;SDS011;5248;47.374;8.486;2023-06-22T11:50:56;8.05;;;6.15;;
10403;SDS011;5248;47.374;8.486;2023-06-22T11:53:24;9.20;;;5.85;;
10403;SDS011;5248;47.374;8.486;2023-06-22T11:55:51;8.77;;;6.07;;
10403;SDS011;5248;47.374;8.486;2023-06-22T11:58:17;11.88;;;6.65;;
10403;SDS011;5248;47.374;8.486;2023-06-22T12:00:48;12.20;;;6.82;;
10403;SDS011;5248;47.374;8.486;2023-06-22T12:03:15;11.75;;;6.75;;
10403;SDS011;5248;47.374;8.486;2023-06-22T12:05:42;7.90;;;6.85;;
10403;SDS011;5248;47.374;8.486;2023-06-22T12:08:08;11.00;;;6.90;;
10403;SDS011;5248;47.374;8.486;2023-06-22T12:10:35;12.25;;;6.30;;
10403;SDS011;5248;47.374;8.486;2023-06-22T12:13:04;8.57;;;6.13;;
10403;SDS011;5248;47.374;8.486;2023-06-22T12:15:30;14.32;;;6.80;;
10403;SDS011;5248;47.374;8.486;2023-06-22T12:17:58;12.50;;;6.38;;
10403;SDS011;5248;47.374;8.486;2023-06-22T12:20:26;9.82;;;5.93;;
10403;SDS011;5248;47.374;8.486;2023-06-22T12:22:52;9.88;;;6.13;;
10403;SDS011;5248;47.374;8.486;2023-06-22T12:25:22;11.00;;;6.35;;
10403;SDS011;5248;47.374;8.486;2023-06-22T12:27:49;11.20;;;5.68;;
10403;SDS011;5248;47.374;8.486;2023-06-22T12:30:16;10.30;;;6.00;;
10403;SDS011;5248;47.374;8.486;2023-06-22T12:32:43;9.52;;;5.75;;
10403;SDS011;5248;47.374;8.486;2023-06-22T12:35:10;11.50;;;6.32;;
10403;SDS011;5248;47.374;8.486;2023-06-22T12:37:39;12.68;;;6.00;;
10403;SDS011;5248;47.374;8.486;2023-06-22T12:40:06;8.40;;;5.97;;
10403;SDS011;5248;47.374;8.486;2023-06-22T12:42:34;10.77;;;5.72;;
10403;SDS011;5248;47.374;8.486;2023-06-22T12:45:01;19.17;;;6.88;;
10403;SDS011;5248;47.374;8.486;2023-06-22T12:47:28;10.45;;;5.72;;
10403;SDS011;5248;47.374;8.486;2023-06-22T12:49:56;12.48;;;6.30;;
10403;SDS011;5248;47.374;8.486;2023-06-22T12:52:26;8.63;;;5.88;;
10403;SDS011;5248;47.374;8.486;2023-06-22T12:54:53;14.93;;;6.10;;
10403;SDS011;5248;47.374;8.486;2023-06-22T12:57:19;9.57;;;5.60;;
10403;SDS011;5248;47.374;8.486;2023-06-22T12:59:46;13.68;;;6.18;;
10403;SDS011;5248;47.374;8.486;2023-06-22T13:02:12;13.45;;;5.30;;
10403;SDS011;5248;47.374;8.486;2023-06-22T13:04:39;11.77;;;6.07;;
10403;SDS011;5248;47.374;8.486;2023-06-22T13:07:06;10.60;;;5.95;;
10403;SDS011;5248;47.374;8.486;2023-06-22T13:09:34;9.23;;;5.53;;
10403;SDS011;5248;47.374;8.486;2023-06-22T13:12:02;9.32;;;5.47;;
10403;SDS011;5248;47.374;8.486;2023-06-22T13:14:30;10.98;;;5.45;;
10403;SDS011;5248;47.374;8.486;2023-06-22T13:16:59;8.60;;;5.10;;
10403;SDS011;5248;47.374;8.486;2023-06-22T13:19:26;11.80;;;5.53;;
10403;SDS011;5248;47.374;8.486;2023-06-22T13:21:57;12.05;;;5.32;;
10403;SDS011;5248;47.374;8.486;2023-06-22T13:24:24;10.57;;;5.25;;
10403;SDS011;5248;47.374;8.486;2023-06-22T13:26:51;9.15;;;4.90;;
10403;SDS011;5248;47.374;8.486;2023-06-22T13:29:18;9.95;;;5.05;;
10403;SDS011;5248;47.374;8.486;2023-06-22T13:31:44;9.77;;;5.07;;
10403;SDS011;5248;47.374;8.486;2023-06-22T13:34:11;8.43;;;4.97;;
10403;SDS011;5248;47.374;8.486;2023-06-22T13:36:37;8.68;;;4.45;;
10403;SDS011;5248;47.374;8.486;2023-06-22T13:39:04;9.55;;;4.22;;
10403;SDS011;5248;47.374;8.486;2023-06-22T13:41:30;7.47;;;4.00;;
10403;SDS011;5248;47.374;8.486;2023-06-22T13:43:58;5.22;;;3.53;;
10403;SDS011;5248;47.374;8.486;2023-06-22T13:46:25;9.10;;;4.05;;
10403;SDS011;5248;47.374;8.486;2023-06-22T13:48:51;10.90;;;4.63;;
10403;SDS011;5248;47.374;8.486;2023-06-22T13:51:18;8.45;;;4.13;;
10403;SDS011;5248;47.374;8.486;2023-06-22T13:53:44;9.45;;;4.05;;
10403;SDS011;5248;47.374;8.486;2023-06-22T13:56:10;9.45;;;4.53;;
10403;SDS011;5248;47.374;8.486;2023-06-22T13:58:37;6.65;;;3.92;;
10403;SDS011;5248;47.374;8.486;2023-06-22T14:01:05;7.65;;;3.92;;
10403;SDS011;5248;47.374;8.486;2023-06-22T14:03:31;6.47;;;3.92;;
10403;SDS011;5248;47.374;8.486;2023-06-22T14:05:58;7.18;;;4.38;;
10403;SDS011;5248;47.374;8.486;2023-06-22T14:08:27;10.98;;;4.47;;
10403;SDS011;5248;47.374;8.486;2023-06-22T14:10:54;8.88;;;4.15;;
10403;SDS011;5248;47.374;8.486;2023-06-22T14:13:20;9.88;;;4.15;;
10403;SDS011;5248;47.374;8.486;2023-06-22T14:15:48;9.35;;;4.20;;
10403;SDS011;5248;47.374;8.486;2023-06-22T14:18:18;8.68;;;4.53;;
10403;SDS011;5248;47.374;8.486;2023-06-22T14:20:47;11.00;;;4.90;;
10403;SDS011;5248;47.374;8.486;2023-06-22T14:23:14;10.32;;;4.78;;
10403;SDS011;5248;47.374;8.486;2023-06-22T14:25:44;15.35;;;4.90;;
10403;SDS011;5248;47.374;8.486;2023-06-22T14:28:11;14.75;;;4.90;;
10403;SDS011;5248;47.374;8.486;2023-06-22T14:30:39;11.15;;;4.82;;
10403;SDS011;5248;47.374;8.486;2023-06-22T14:33:05;9.65;;;5.10;;
10403;SDS011;5248;47.374;8.486;2023-06-22T14:35:33;11.38;;;8.48;;
10403;SDS011;5248;47.374;8.486;2023-06-22T14:37:59;10.63;;;5.43;;
10403;SDS011;5248;47.374;8.486;2023-06-22T14:40:26;12.23;;;5.43;;
10403;SDS011;5248;47.374;8.486;2023-06-22T14:42:52;6.63;;;5.00;;
10403;SDS011;5248;47.374;8.486;2023-06-22T14:45:21;11.60;;;5.65;;
10403;SDS011;5248;47.374;8.486;2023-06-22T14:47:49;8.98;;;4.88;;
10403;SDS011;5248;47.374;8.486;2023-06-22T14:50:18;9.10;;;5.00;;
10403;SDS011;5248;47.374;8.486;2023-06-22T14:52:49;6.93;;;4.82;;
10403;SDS011;5248;47.374;8.486;2023-06-22T14:55:15;7.10;;;5.05;;